createdAt,value
2019-04-10T00:01:38.265Z,67.50
2019-04-10T00:04:07.667Z,67.74
2019-04-10T00:06:37.582Z,68.82
2019-04-10T00:09:08.225Z,68.47
2019-04-10T00:11:37.884Z,68.67
2019-04-10T00:14:08.282Z,68.50
2019-04-10T00:16:38.321Z,68.73
2019-04-10T00:19:08.711Z,68.71
2019-04-10T00:21:38.377Z,68.28
2019-04-10T00:24:08.029Z,68.60
2019-04-10T00:26:39.523Z,68.67
2019-04-10T00:29:08.910Z,68.57
2019-04-10T00:31:38.238Z,67.65
2019-04-10T00:34:07.604Z,68.65
2019-04-10T00:36:39.409Z,67.98
2019-04-10T00:39:10.616Z,68.22
2019-04-10T00:41:40.684Z,68.78
2019-04-10T00:44:11.164Z,68.48
2019-04-10T00:46:40.931Z,68.27
2019-04-10T00:49:10.341Z,67.86
2019-04-10T00:51:39.686Z,67.98
2019-04-10T00:54:09.835Z,68.02
2019-04-10T00:56:39.266Z,68.57
2019-04-10T00:59:08.894Z,69.40
2019-04-10T01:01:38.791Z,69.40
2019-04-10T01:04:08.085Z,68.68
2019-04-10T01:06:37.857Z,69.04
2019-04-10T01:09:09.082Z,68.93
2019-04-10T01:11:39.237Z,68.89
2019-04-10T01:14:09.554Z,69.88
2019-04-10T01:16:39.774Z,69.73
2019-04-10T01:19:09.979Z,69.60
2019-04-10T01:21:39.340Z,70.09
2019-04-10T01:24:09.053Z,70.09
2019-04-10T01:26:39.124Z,69.79
2019-04-10T01:29:09.270Z,69.66
2019-04-10T01:31:39.404Z,70.05
2019-04-10T01:34:09.427Z,70.10
2019-04-10T01:36:39.481Z,70.95
2019-04-10T01:39:10.565Z,70.61
2019-04-10T01:41:39.908Z,70.61
2019-04-10T01:44:09.165Z,70.93
2019-04-10T01:46:38.721Z,70.89
2019-04-10T01:49:09.306Z,70.94
2019-04-10T01:51:39.350Z,70.63
2019-04-10T01:54:09.035Z,70.55
2019-04-10T01:56:39.635Z,70.47
2019-04-10T01:59:09.746Z,70.59
2019-04-10T02:01:58.990Z,70.59
2019-04-10T02:04:28.941Z,70.57
2019-04-10T02:06:58.267Z,71.24
2019-04-10T02:09:27.655Z,71.23
2019-04-10T02:11:57.021Z,71.23
2019-04-10T02:14:26.337Z,71.47
2019-04-10T02:16:55.656Z,72.00
2019-04-10T02:19:25.981Z,71.94
2019-04-10T02:21:56.100Z,72.11
2019-04-10T02:24:25.486Z,71.94
2019-04-10T02:26:56.021Z,72.15
2019-04-10T02:29:25.938Z,72.84
2019-04-10T02:31:57.155Z,73.32
2019-04-10T02:34:26.584Z,72.35
2019-04-10T02:36:55.959Z,72.36
2019-04-10T02:39:32.005Z,72.71
2019-04-10T02:41:56.428Z,72.66
2019-04-10T02:44:28.282Z,72.46
2019-04-10T02:46:59.435Z,72.46
2019-04-10T02:49:28.253Z,72.54
2019-04-10T02:51:58.888Z,72.58
2019-04-10T02:54:29.052Z,72.93
2019-04-10T02:56:58.648Z,72.90
2019-04-10T02:59:29.176Z,73.76
2019-04-10T03:02:00.336Z,73.41
2019-04-10T03:04:31.065Z,73.27
2019-04-10T03:07:02.176Z,74.03
2019-04-10T03:09:49.533Z,73.75
2019-04-10T03:12:03.763Z,73.22
2019-04-10T03:14:34.598Z,73.25
2019-04-10T03:17:03.998Z,73.52
2019-04-10T03:19:33.761Z,73.57
2019-04-10T03:22:04.180Z,74.33
2019-04-10T03:24:33.467Z,74.18
2019-04-10T03:27:03.697Z,73.78
2019-04-10T03:29:33.191Z,73.51
2019-04-10T03:32:22.764Z,73.98
2019-04-10T03:34:54.826Z,73.45
2019-04-10T03:37:28.528Z,73.42
2019-04-10T03:39:57.933Z,74.04
2019-04-10T03:42:27.252Z,74.10
2019-04-10T03:44:56.964Z,74.18
2019-04-10T03:47:27.190Z,74.05
2019-04-10T03:49:56.578Z,73.59
2019-04-10T03:52:25.832Z,74.23
2019-04-10T03:54:55.201Z,73.70
2019-04-10T03:57:24.682Z,74.25
2019-04-10T03:59:54.021Z,73.88
2019-04-10T04:02:24.001Z,73.57
2019-04-10T04:04:53.795Z,72.65
2019-04-10T04:07:25.981Z,73.15
2019-04-10T04:09:54.260Z,73.03
2019-04-10T04:12:23.542Z,73.42
2019-04-10T04:14:52.899Z,73.90
2019-04-10T04:17:22.269Z,73.56
2019-04-10T04:19:52.587Z,73.22
2019-04-10T04:22:22.968Z,73.01
2019-04-10T04:24:52.454Z,72.81
2019-04-10T04:27:21.877Z,74.03
2019-04-10T04:29:52.240Z,72.78
2019-04-10T04:32:21.830Z,72.77
2019-04-10T04:34:52.155Z,73.55
2019-04-10T04:37:23.215Z,73.51
2019-04-10T04:39:52.509Z,73.63
2019-04-10T04:42:22.362Z,73.67
2019-04-10T04:44:52.116Z,73.42
2019-04-10T04:47:22.307Z,73.72
2019-04-10T04:49:52.333Z,73.14
2019-04-10T04:52:21.918Z,73.27
2019-04-10T04:54:51.189Z,72.85
2019-04-10T04:57:20.541Z,73.78
2019-04-10T04:59:50.478Z,73.14
2019-04-10T05:02:20.019Z,71.94
2019-04-10T05:04:51.412Z,72.33
2019-04-10T05:07:20.993Z,73.08
2019-04-10T05:09:50.507Z,72.78
2019-04-10T05:12:20.310Z,72.56
2019-04-10T05:14:49.668Z,72.34
2019-04-10T05:17:19.993Z,72.07
2019-04-10T05:19:50.289Z,72.45
2019-04-10T05:22:19.676Z,72.01
2019-04-10T05:24:48.969Z,70.94
2019-04-10T05:27:18.440Z,70.98
2019-04-10T05:29:47.715Z,70.71
2019-04-10T05:32:17.853Z,71.09
2019-04-10T05:34:47.309Z,70.26
2019-04-10T05:37:16.801Z,69.93
2019-04-10T05:39:50.619Z,70.58
2019-04-10T05:42:17.257Z,70.05
2019-04-10T05:44:46.527Z,69.19
2019-04-10T05:47:15.827Z,67.60
2019-04-10T05:49:45.287Z,67.07
2019-04-10T05:52:14.786Z,64.78
2019-04-10T05:54:44.160Z,64.78
2019-04-10T05:57:13.462Z,64.09
2019-04-10T05:59:43.865Z,63.61
2019-04-10T06:02:13.862Z,60.62
2019-04-10T06:04:43.336Z,59.99
2019-04-10T06:07:14.947Z,57.98
2019-04-10T06:09:54.097Z,57.55
2019-04-10T06:12:16.085Z,55.16
2019-04-10T06:14:46.308Z,54.79
2019-04-10T06:17:16.421Z,52.92
2019-04-10T06:19:46.773Z,54.67
2019-04-10T06:22:16.711Z,55.57
2019-04-10T06:24:46.773Z,56.90
2019-04-10T06:27:16.457Z,59.82
2019-04-10T06:29:51.663Z,60.74
2019-04-10T06:32:22.677Z,62.72
2019-04-10T06:34:52.034Z,63.55
2019-04-10T06:37:21.986Z,62.49
2019-04-10T06:39:51.455Z,62.77
2019-04-10T06:42:20.884Z,63.10
2019-04-10T06:44:50.293Z,61.80
2019-04-10T06:47:20.282Z,60.88
2019-04-10T06:49:50.737Z,60.41
2019-04-10T06:52:20.668Z,61.65
2019-04-10T06:54:51.038Z,59.44
2019-04-10T06:57:20.832Z,58.99
2019-04-10T06:59:50.485Z,60.50
2019-04-10T07:02:27.100Z,58.62
2019-04-10T07:04:54.888Z,57.63
2019-04-10T07:07:25.245Z,57.42
2019-04-10T07:09:55.158Z,54.18
2019-04-10T07:12:30.076Z,54.73
2019-04-10T07:14:58.279Z,56.52
2019-04-10T07:17:29.145Z,57.24
2019-04-10T07:19:59.677Z,58.00
2019-04-10T07:22:31.101Z,57.99
2019-04-10T07:25:00.761Z,58.56
2019-04-10T07:27:33.612Z,58.22
2019-04-10T07:30:01.714Z,57.80
2019-04-10T07:32:32.293Z,56.67
2019-04-10T07:35:02.939Z,57.02
2019-04-10T07:37:33.969Z,57.73
2019-04-10T07:40:05.952Z,58.05
2019-04-10T07:42:39.838Z,56.26
2019-04-10T07:45:07.669Z,57.76
2019-04-10T07:47:37.986Z,57.42
2019-04-10T07:50:10.290Z,58.08
2019-04-10T07:52:39.687Z,56.79
2019-04-10T07:55:09.043Z,55.37
2019-04-10T07:57:38.636Z,52.92
2019-04-10T08:00:11.095Z,52.95
2019-04-10T08:02:42.808Z,52.55
2019-04-10T08:05:13.935Z,53.26
2019-04-10T08:07:43.378Z,53.24
2019-04-10T08:10:12.965Z,53.24
2019-04-10T08:12:47.770Z,52.24
2019-04-10T08:15:13.438Z,51.74
2019-04-10T08:17:42.793Z,52.91
2019-04-10T08:20:14.180Z,51.90
2019-04-10T08:22:43.482Z,50.08
2019-04-10T08:25:14.294Z,51.44
2019-04-10T08:27:43.841Z,52.61
2019-04-10T08:30:13.364Z,52.02
2019-04-10T08:32:53.305Z,51.18
2019-04-10T08:35:15.361Z,51.15
2019-04-10T08:37:46.108Z,52.63
2019-04-10T08:40:15.788Z,51.25
2019-04-10T08:42:46.646Z,51.23
2019-04-10T08:45:16.898Z,48.18
2019-04-10T08:47:46.195Z,44.62
2019-04-10T08:50:15.540Z,44.58
2019-04-10T08:52:44.907Z,46.99
2019-04-10T08:55:14.267Z,48.95
2019-04-10T08:57:45.820Z,49.28
2019-04-10T09:00:16.497Z,48.28
2019-04-10T09:02:46.471Z,47.97
2019-04-10T09:05:15.780Z,47.66
2019-04-10T09:07:46.398Z,47.12
2019-04-10T09:10:16.445Z,47.02
2019-04-10T09:12:45.855Z,44.59
2019-04-10T09:15:16.036Z,42.19
2019-04-10T09:17:47.257Z,37.90
2019-04-10T09:20:16.662Z,36.35
2019-04-10T09:23:10.310Z,36.67
2019-04-10T09:25:17.876Z,35.64
2019-04-10T09:27:47.616Z,34.75
2019-04-10T09:30:16.987Z,35.66
2019-04-10T09:32:46.602Z,33.94
2019-04-10T09:35:16.465Z,34.44
2019-04-10T09:37:46.306Z,35.90
2019-04-10T09:40:16.358Z,35.76
2019-04-10T09:42:46.020Z,34.14
2019-04-10T09:45:15.760Z,33.44
2019-04-10T09:47:45.840Z,32.14
2019-04-10T09:50:15.473Z,33.59
2019-04-10T09:52:46.134Z,34.72
2019-04-10T09:55:16.008Z,33.38
2019-04-10T09:57:45.445Z,32.29
2019-04-10T10:00:15.229Z,31.36
2019-04-10T10:02:45.691Z,31.41
2019-04-10T10:05:15.200Z,32.98
2019-04-10T10:07:45.211Z,32.52
2019-04-10T10:10:15.052Z,32.75
2019-04-10T10:12:45.052Z,31.54
2019-04-10T10:15:14.650Z,32.93
2019-04-10T10:17:44.555Z,31.11
2019-04-10T10:20:15.370Z,33.33
2019-04-10T10:22:45.362Z,32.01
2019-04-10T10:25:15.725Z,29.77
2019-04-10T10:27:45.057Z,31.53
2019-04-10T10:30:15.566Z,31.04
2019-04-10T10:32:45.568Z,30.98
2019-04-10T10:35:16.780Z,31.91
2019-04-10T10:37:48.469Z,31.08
2019-04-10T10:40:19.204Z,30.86
2019-04-10T10:42:50.327Z,29.38
2019-04-10T10:45:20.852Z,29.78
2019-04-10T10:47:50.619Z,31.07
2019-04-10T10:50:22.092Z,29.17
2019-04-10T10:52:52.117Z,29.46
2019-04-10T10:55:21.557Z,31.14
2019-04-10T10:57:51.261Z,30.99
2019-04-10T11:00:21.632Z,30.50
2019-04-10T11:02:51.900Z,30.36
2019-04-10T11:05:21.379Z,30.14
2019-04-10T11:07:51.529Z,29.25
2019-04-10T11:10:24.450Z,30.26
2019-04-10T11:12:53.548Z,29.77
2019-04-10T11:15:23.895Z,27.16
2019-04-10T11:17:53.849Z,28.40
2019-04-10T11:20:24.107Z,31.23
2019-04-10T11:22:53.783Z,30.10
2019-04-10T11:25:23.794Z,28.48
2019-04-10T11:27:53.950Z,29.23
2019-04-10T11:30:24.884Z,28.98
2019-04-10T11:32:54.922Z,28.07
2019-04-10T11:35:24.384Z,28.00
2019-04-10T11:40:27.867Z,29.64
2019-04-10T11:42:58.094Z,30.71
2019-04-10T11:45:37.971Z,28.57
2019-04-10T11:48:02.287Z,27.76
2019-04-10T11:50:32.663Z,30.01
2019-04-10T11:53:04.398Z,28.50
2019-04-10T11:58:05.567Z,28.71
2019-04-10T12:05:47.971Z,27.32
2019-04-10T12:13:19.741Z,29.35
2019-04-10T12:15:50.382Z,30.77
2019-04-10T12:18:20.055Z,27.65
2019-04-10T12:20:49.461Z,28.72
2019-04-10T12:23:19.103Z,29.51
2019-04-10T12:25:49.385Z,28.30
2019-04-10T12:28:20.125Z,29.07
2019-04-10T12:30:49.424Z,28.87
2019-04-10T12:33:19.137Z,29.28
2019-04-10T12:35:48.564Z,28.74
2019-04-10T12:38:19.309Z,30.15
2019-04-10T12:40:49.419Z,29.91
2019-04-10T12:43:18.821Z,29.40
2019-04-10T12:45:48.607Z,28.36
2019-04-10T12:48:19.264Z,28.76
2019-04-10T12:50:49.517Z,28.72
2019-04-10T12:53:19.169Z,28.84
2019-04-10T12:55:49.413Z,25.93
2019-04-10T12:58:19.307Z,26.71
2019-04-10T13:00:52.049Z,27.68
2019-04-10T13:03:21.437Z,28.73
2019-04-10T13:05:51.537Z,28.72
2019-04-10T13:08:28.811Z,26.18
2019-04-10T13:10:54.017Z,26.61
2019-04-10T13:13:24.255Z,27.13
2019-04-10T13:15:54.146Z,26.80
2019-04-10T13:18:24.454Z,27.18
2019-04-10T13:20:54.078Z,26.37
2019-04-10T13:23:24.547Z,26.65
2019-04-10T13:25:59.172Z,26.52
2019-04-10T13:28:25.545Z,25.55
2019-04-10T13:30:56.425Z,28.22
2019-04-10T13:33:26.727Z,26.14
2019-04-10T13:35:56.173Z,25.24
2019-04-10T13:38:30.917Z,24.37
2019-04-10T13:40:56.708Z,25.03
2019-04-10T13:43:26.127Z,24.25
2019-04-10T13:45:56.280Z,25.67
2019-04-10T13:48:25.677Z,26.04
2019-04-10T13:50:54.992Z,23.75
2019-04-10T13:53:24.270Z,24.26
2019-04-10T13:55:54.700Z,24.66
2019-04-10T13:58:26.509Z,23.62
2019-04-10T14:00:55.391Z,23.66
2019-04-10T14:03:25.938Z,26.11
2019-04-10T14:05:55.527Z,27.75
2019-04-10T14:08:36.795Z,24.38
2019-04-10T14:10:57.229Z,25.62
2019-04-10T14:13:27.579Z,24.80
2019-04-10T14:15:58.000Z,25.29
2019-04-10T14:18:28.527Z,25.39
2019-04-10T14:20:57.814Z,25.28
2019-04-10T14:23:28.716Z,25.70
2019-04-10T14:26:00.625Z,25.84
2019-04-10T14:28:31.633Z,24.52
2019-04-10T14:31:02.733Z,26.49
2019-04-10T14:33:33.554Z,26.35
2019-04-10T14:36:03.425Z,26.24
2019-04-10T14:38:33.060Z,25.69
2019-04-10T14:41:03.290Z,25.57
2019-04-10T14:43:33.136Z,26.63
2019-04-10T14:46:02.817Z,26.70
2019-04-10T14:48:32.405Z,28.50
2019-04-10T14:51:01.890Z,28.99
2019-04-10T14:53:33.131Z,28.18
2019-04-10T14:56:02.533Z,30.47
2019-04-10T14:58:32.884Z,29.60
2019-04-10T15:01:06.929Z,28.17
2019-04-10T15:03:34.644Z,27.72
2019-04-10T15:06:05.000Z,28.22
2019-04-10T15:08:35.629Z,30.95
2019-04-10T15:11:05.071Z,30.77
2019-04-10T15:13:36.024Z,31.04
2019-04-10T15:16:07.054Z,29.03
2019-04-10T15:18:37.174Z,28.54
2019-04-10T15:21:07.006Z,29.12
2019-04-10T15:23:36.612Z,30.66
2019-04-10T15:26:06.066Z,29.05
2019-04-10T15:28:36.446Z,29.08
2019-04-10T15:31:06.712Z,29.72
2019-04-10T15:33:37.085Z,28.60
2019-04-10T15:36:09.367Z,28.86
2019-04-10T15:38:39.736Z,28.84
2019-04-10T15:41:09.244Z,31.41
2019-04-10T15:43:39.947Z,30.94
2019-04-10T15:46:09.425Z,28.38
2019-04-10T15:48:38.747Z,29.44
2019-04-10T15:51:08.149Z,28.40
2019-04-10T15:53:37.641Z,29.76
2019-04-10T15:56:08.103Z,30.04
2019-04-10T15:58:37.489Z,31.28
2019-04-10T16:01:08.479Z,30.77
2019-04-10T16:03:38.696Z,31.41
2019-04-10T16:06:08.267Z,30.52
2019-04-10T16:08:38.613Z,31.25
2019-04-10T16:11:21.970Z,32.23
2019-04-10T16:13:53.132Z,32.65
2019-04-10T16:16:36.933Z,30.55
2019-04-10T16:19:24.626Z,31.52
2019-04-10T16:21:56.338Z,31.00
2019-04-10T16:24:27.026Z,31.29
2019-04-10T16:26:56.547Z,31.82
2019-04-10T16:29:26.740Z,32.30
2019-04-10T16:31:56.607Z,31.49
2019-04-10T16:34:26.872Z,31.21
2019-04-10T16:36:57.727Z,31.43
2019-04-10T16:39:27.896Z,32.38
2019-04-10T16:41:57.934Z,32.47
2019-04-10T16:44:27.492Z,31.42
2019-04-10T16:46:57.439Z,32.07
2019-04-10T16:49:26.856Z,31.31
2019-04-10T16:51:59.010Z,33.38
2019-04-10T16:54:29.227Z,33.46
2019-04-10T16:57:00.377Z,35.23
2019-04-10T16:59:30.048Z,36.68
2019-04-10T17:02:01.793Z,35.95
2019-04-10T17:04:31.923Z,37.12
2019-04-10T17:07:01.301Z,37.93
2019-04-10T17:09:30.888Z,37.53
2019-04-10T17:12:01.078Z,37.99
2019-04-10T17:14:31.410Z,37.55
2019-04-10T17:17:02.039Z,38.32
2019-04-10T17:19:45.611Z,39.76
2019-04-10T17:22:04.767Z,39.53
2019-04-10T17:24:34.140Z,39.35
2019-04-10T17:27:05.021Z,39.63
2019-04-10T17:29:34.866Z,39.12
2019-04-10T17:32:04.767Z,39.33
2019-04-10T17:34:34.743Z,38.54
2019-04-10T17:37:05.430Z,39.78
2019-04-10T17:39:35.584Z,40.47
2019-04-10T17:42:06.171Z,41.46
2019-04-10T17:44:35.974Z,39.94
2019-04-10T17:47:09.459Z,40.62
2019-04-10T17:49:39.033Z,41.04
2019-04-10T17:52:10.304Z,39.71
2019-04-10T17:54:41.184Z,40.62
2019-04-10T17:57:10.777Z,40.67
2019-04-10T17:59:40.733Z,41.42
2019-04-10T18:02:11.995Z,41.31
2019-04-10T18:04:42.171Z,40.86
2019-04-10T18:07:12.141Z,41.64
2019-04-10T18:09:41.753Z,41.41
2019-04-10T18:12:12.139Z,41.01
2019-04-10T18:14:44.034Z,41.92
2019-04-10T18:17:14.503Z,43.45
2019-04-10T18:19:44.151Z,43.66
2019-04-10T18:22:14.293Z,43.79
2019-04-10T18:24:43.919Z,45.00
2019-04-10T18:27:14.279Z,45.65
2019-04-10T18:29:43.757Z,45.06
2019-04-10T18:32:13.846Z,46.12
2019-04-10T18:34:44.451Z,47.19
2019-04-10T18:37:16.580Z,46.80
2019-04-10T18:39:44.978Z,47.45
2019-04-10T18:42:14.296Z,47.73
2019-04-10T18:44:44.672Z,49.09
2019-04-10T18:47:14.275Z,48.94
2019-04-10T18:49:43.764Z,48.75
2019-04-10T18:52:13.025Z,49.51
2019-04-10T18:54:43.522Z,50.61
2019-04-10T18:57:13.663Z,50.09
2019-04-10T18:59:44.932Z,51.13
2019-04-10T19:02:32.853Z,50.26
2019-04-10T19:05:04.143Z,50.16
2019-04-10T19:07:34.680Z,50.12
2019-04-10T19:10:04.283Z,50.75
2019-04-10T19:12:34.752Z,50.26
2019-04-10T19:15:06.560Z,50.27
2019-04-10T19:17:37.196Z,51.08
2019-04-10T19:20:07.688Z,51.60
2019-04-10T19:22:38.126Z,53.42
2019-04-10T19:25:08.268Z,52.73
2019-04-10T19:27:38.050Z,53.19
2019-04-10T19:30:10.969Z,53.11
2019-04-10T19:32:41.492Z,52.14
2019-04-10T19:35:11.105Z,52.20
2019-04-10T19:37:40.864Z,53.14
2019-04-10T19:40:11.301Z,53.33
2019-04-10T19:42:41.789Z,53.88
2019-04-10T19:45:12.056Z,54.85
2019-04-10T19:47:42.254Z,54.81
2019-04-10T19:50:12.971Z,53.95
2019-04-10T19:52:42.482Z,54.04
2019-04-10T19:55:12.097Z,54.29
2019-04-10T19:57:41.648Z,54.15
2019-04-10T20:00:12.530Z,53.86
2019-04-10T20:02:42.054Z,54.17
2019-04-10T20:05:11.744Z,54.36
2019-04-10T20:07:43.041Z,54.49
2019-04-10T20:10:13.151Z,54.33
2019-04-10T20:12:42.678Z,54.47
2019-04-10T20:15:12.219Z,54.39
2019-04-10T20:17:41.719Z,54.97
2019-04-10T20:20:11.515Z,54.83
2019-04-10T20:22:41.845Z,56.05
2019-04-10T20:25:12.392Z,56.96
2019-04-10T20:27:42.489Z,56.96
2019-04-10T20:30:12.417Z,55.33
2019-04-10T20:32:42.030Z,55.58
2019-04-10T20:35:11.908Z,55.08
2019-04-10T20:37:41.454Z,56.22
2019-04-10T20:40:11.889Z,56.22
2019-04-10T20:42:42.499Z,55.83
2019-04-10T20:45:12.129Z,56.40
2019-04-10T20:47:41.610Z,56.40
2019-04-10T20:50:12.006Z,55.59
2019-04-10T20:52:41.444Z,55.59
2019-04-10T20:55:11.297Z,56.27
2019-04-10T20:57:40.766Z,56.47
2019-04-10T21:00:13.696Z,56.58
2019-04-10T21:02:43.044Z,57.08
2019-04-10T21:05:14.848Z,57.37
2019-04-10T21:07:45.970Z,57.26
2019-04-10T21:10:15.455Z,57.63
2019-04-10T21:12:44.706Z,58.28
2019-04-10T21:15:14.197Z,57.52
2019-04-10T21:17:43.855Z,58.21
2019-04-10T21:20:13.690Z,59.11
2019-04-10T21:22:43.137Z,58.20
2019-04-10T21:25:12.653Z,58.20
2019-04-10T21:27:42.005Z,59.53
2019-04-10T21:30:15.990Z,59.53
2019-04-10T21:33:03.867Z,60.39
2019-04-10T21:35:37.130Z,59.26
2019-04-10T21:38:06.883Z,60.11
2019-04-10T21:40:36.244Z,59.89
2019-04-10T21:43:06.050Z,59.70
2019-04-10T21:45:35.556Z,59.96
2019-04-10T21:48:04.854Z,60.15
2019-04-10T21:50:35.525Z,59.62
2019-04-10T21:53:06.136Z,59.98
2019-04-10T21:55:35.589Z,61.37
2019-04-10T21:58:05.966Z,60.64
2019-04-10T22:00:53.231Z,60.56
2019-04-10T22:03:23.251Z,61.12
2019-04-10T22:06:11.304Z,61.16
2019-04-10T22:08:48.302Z,61.95
2019-04-10T22:11:19.035Z,61.63
2019-04-10T22:13:50.614Z,61.52
2019-04-10T22:16:22.047Z,62.56
2019-04-10T22:18:51.973Z,63.40
2019-04-10T22:21:22.770Z,62.27
2019-04-10T22:23:53.143Z,63.20
2019-04-10T22:26:22.459Z,63.36
2019-04-10T22:28:52.779Z,63.76
2019-04-10T22:31:22.131Z,62.63
2019-04-10T22:33:52.364Z,63.15
2019-04-10T22:36:22.826Z,63.35
2019-04-10T22:38:52.327Z,64.44
2019-04-10T22:41:28.640Z,63.78
2019-04-10T22:43:53.063Z,64.58
2019-04-10T22:46:22.413Z,64.69
2019-04-10T22:48:51.729Z,64.65
2019-04-10T22:51:21.405Z,64.87
2019-04-10T22:53:51.226Z,65.26
2019-04-10T22:56:20.978Z,65.23
2019-04-10T22:58:51.138Z,65.74
2019-04-10T23:01:20.771Z,65.84
2019-04-10T23:03:51.311Z,66.03
2019-04-10T23:06:20.854Z,66.52
2019-04-10T23:08:50.249Z,66.42
2019-04-10T23:11:30.434Z,66.81
2019-04-10T23:13:51.121Z,67.41
2019-04-10T23:16:20.459Z,67.13
2019-04-10T23:18:49.838Z,66.97
2019-04-10T23:21:20.658Z,67.46
2019-04-10T23:23:50.087Z,67.58
2019-04-10T23:26:20.731Z,67.60
2019-04-10T23:28:51.726Z,67.48
2019-04-10T23:31:21.586Z,66.94
2019-04-10T23:33:50.997Z,67.73
2019-04-10T23:36:20.309Z,68.15
2019-04-10T23:38:50.631Z,67.07
2019-04-10T23:41:21.128Z,68.30
2019-04-10T23:43:51.534Z,68.30
2019-04-10T23:46:22.145Z,67.97
2019-04-10T23:48:51.567Z,68.20
2019-04-10T23:51:21.159Z,69.22
2019-04-10T23:53:50.975Z,69.35
2019-04-10T23:56:21.629Z,69.35
2019-04-10T23:58:52.708Z,68.83
